sensor_id;sensor_type;location;lat;lon;timestamp;noise_LAeq;noise_LA_min;noise_LA_max;noise_LA01;noise_LA95
58197;Laerm;43999;51.660;5.616;2023-02-13T00:00:13;53.34;39.21;72.03;;
58197;Laerm;43999;51.660;5.616;2023-02-13T00:02:44;43.24;38.05;54.65;;
58197;Laerm;43999;51.660;5.616;2023-02-13T00:05:15;55.90;38.81;75.86;;
58197;Laerm;43999;51.660;5.616;2023-02-13T00:07:47;42.55;38.05;50.26;;
58197;Laerm;43999;51.660;5.616;2023-02-13T00:10:15;54.07;39.70;67.40;;
58197;Laerm;43999;51.660;5.616;2023-02-13T00:12:44;41.54;38.47;45.30;;
58197;Laerm;43999;51.660;5.616;2023-02-13T00:15:12;53.80;38.81;70.41;;
58197;Laerm;43999;51.660;5.616;2023-02-13T00:17:48;50.66;38.05;65.31;;
58197;Laerm;43999;51.660;5.616;2023-02-13T00:20:16;50.30;37.52;63.71;;
58197;Laerm;43999;51.660;5.616;2023-02-13T00:22:43;48.80;39.08;64.45;;
58197;Laerm;43999;51.660;5.616;2023-02-13T00:25:11;55.62;39.92;66.73;;
58197;Laerm;43999;51.660;5.616;2023-02-13T00:27:38;46.46;39.46;63.08;;
58197;Laerm;43999;51.660;5.616;2023-02-13T00:30:07;46.15;39.08;61.62;;
58197;Laerm;43999;51.660;5.616;2023-02-13T00:32:39;49.27;39.99;63.15;;
58197;Laerm;43999;51.660;5.616;2023-02-13T00:35:07;45.42;38.67;58.06;;
58197;Laerm;43999;51.660;5.616;2023-02-13T00:37:38;52.36;37.70;67.65;;
58197;Laerm;43999;51.660;5.616;2023-02-13T00:40:07;49.38;37.12;66.87;;
58197;Laerm;43999;51.660;5.616;2023-02-13T00:42:40;49.05;38.37;77.26;;
58197;Laerm;43999;51.660;5.616;2023-02-13T00:45:08;48.57;38.67;66.62;;
58197;Laerm;43999;51.660;5.616;2023-02-13T00:47:37;42.39;38.37;51.98;;
58197;Laerm;43999;51.660;5.616;2023-02-13T00:50:06;47.83;38.74;63.03;;
58197;Laerm;43999;51.660;5.616;2023-02-13T00:52:37;41.72;38.95;49.28;;
58197;Laerm;43999;51.660;5.616;2023-02-13T00:55:05;48.21;38.37;63.64;;
58197;Laerm;43999;51.660;5.616;2023-02-13T00:57:38;41.74;38.05;44.51;;
58197;Laerm;43999;51.660;5.616;2023-02-13T01:00:11;45.21;39.46;55.08;;
58197;Laerm;43999;51.660;5.616;2023-02-13T01:02:45;41.69;39.08;43.49;;
58197;Laerm;43999;51.660;5.616;2023-02-13T01:05:17;42.98;38.81;51.44;;
58197;Laerm;43999;51.660;5.616;2023-02-13T01:07:46;42.27;39.08;47.34;;
58197;Laerm;43999;51.660;5.616;2023-02-13T01:10:17;49.20;39.08;62.98;;
58197;Laerm;43999;51.660;5.616;2023-02-13T01:12:48;41.90;38.05;52.96;;
58197;Laerm;43999;51.660;5.616;2023-02-13T01:15:16;42.39;39.08;50.21;;
58197;Laerm;43999;51.660;5.616;2023-02-13T01:17:46;53.10;38.67;67.09;;
58197;Laerm;43999;51.660;5.616;2023-02-13T01:20:16;50.15;39.08;66.73;;
58197;Laerm;43999;51.660;5.616;2023-02-13T01:22:49;41.83;38.37;44.03;;
58197;Laerm;43999;51.660;5.616;2023-02-13T01:25:18;56.29;39.46;69.96;;
58197;Laerm;43999;51.660;5.616;2023-02-13T01:27:50;52.83;39.21;68.86;;
58197;Laerm;43999;51.660;5.616;2023-02-13T01:30:20;46.94;38.95;60.67;;
58197;Laerm;43999;51.660;5.616;2023-02-13T01:32:49;41.74;39.34;43.24;;
58197;Laerm;43999;51.660;5.616;2023-02-13T01:35:21;41.70;38.81;43.44;;
58197;Laerm;43999;51.660;5.616;2023-02-13T01:37:54;42.94;39.21;52.95;;
58197;Laerm;43999;51.660;5.616;2023-02-13T01:40:24;43.17;38.21;56.30;;
58197;Laerm;43999;51.660;5.616;2023-02-13T01:43:02;43.91;39.08;55.47;;
58197;Laerm;43999;51.660;5.616;2023-02-13T01:45:31;41.78;39.08;47.55;;
58197;Laerm;43999;51.660;5.616;2023-02-13T01:48:06;42.82;39.21;50.86;;
58197;Laerm;43999;51.660;5.616;2023-02-13T01:51:01;42.47;38.99;49.07;;
58197;Laerm;43999;51.660;5.616;2023-02-13T01:53:53;45.86;39.21;65.04;;
58197;Laerm;43999;51.660;5.616;2023-02-13T01:56:49;42.50;38.52;52.64;;
58197;Laerm;43999;51.660;5.616;2023-02-13T01:59:39;42.62;38.37;54.63;;
58197;Laerm;43999;51.660;5.616;2023-02-13T02:02:10;42.05;39.08;48.84;;
58197;Laerm;43999;51.660;5.616;2023-02-13T02:04:42;45.46;38.52;63.84;;
58197;Laerm;43999;51.660;5.616;2023-02-13T02:07:25;44.04;38.37;56.60;;
58197;Laerm;43999;51.660;5.616;2023-02-13T02:10:13;41.72;38.95;44.47;;
58197;Laerm;43999;51.660;5.616;2023-02-13T02:15:39;41.62;38.52;44.62;;
58197;Laerm;43999;51.660;5.616;2023-02-13T02:18:22;41.59;38.67;43.34;;
58197;Laerm;43999;51.660;5.616;2023-02-13T02:27:15;52.65;39.34;73.00;;
58197;Laerm;43999;51.660;5.616;2023-02-13T02:40:17;41.53;38.67;43.58;;
58197;Laerm;43999;51.660;5.616;2023-02-13T02:46:26;42.89;38.95;55.49;;
58197;Laerm;43999;51.660;5.616;2023-02-13T02:49:14;49.93;38.67;68.67;;
58197;Laerm;43999;51.660;5.616;2023-02-13T02:52:12;41.84;38.67;46.65;;
58197;Laerm;43999;51.660;5.616;2023-02-13T02:55:01;42.08;39.21;45.33;;
58197;Laerm;43999;51.660;5.616;2023-02-13T03:01:20;41.78;37.88;50.84;;
58197;Laerm;43999;51.660;5.616;2023-02-13T03:04:33;42.13;39.21;46.57;;
58197;Laerm;43999;51.660;5.616;2023-02-13T03:07:23;51.61;39.21;69.69;;
58197;Laerm;43999;51.660;5.616;2023-02-13T03:10:02;41.62;38.81;43.99;;
58197;Laerm;43999;51.660;5.616;2023-02-13T03:13:04;46.39;38.21;60.49;;
58197;Laerm;43999;51.660;5.616;2023-02-13T03:15:59;42.83;39.34;57.24;;
58197;Laerm;43999;51.660;5.616;2023-02-13T03:18:55;43.12;39.46;54.21;;
58197;Laerm;43999;51.660;5.616;2023-02-13T03:29:08;52.18;39.46;78.06;;
58197;Laerm;43999;51.660;5.616;2023-02-13T03:39:25;48.45;39.46;65.88;;
58197;Laerm;43999;51.660;5.616;2023-02-13T03:43:10;51.46;39.08;66.87;;
58197;Laerm;43999;51.660;5.616;2023-02-13T03:45:47;49.12;39.92;64.08;;
58197;Laerm;43999;51.660;5.616;2023-02-13T03:48:31;52.82;39.92;70.09;;
58197;Laerm;43999;51.660;5.616;2023-02-13T03:51:49;43.81;39.21;61.24;;
58197;Laerm;43999;51.660;5.616;2023-02-13T03:54:37;47.73;38.95;59.41;;
58197;Laerm;43999;51.660;5.616;2023-02-13T03:57:31;43.41;38.81;53.58;;
58197;Laerm;43999;51.660;5.616;2023-02-13T04:00:20;54.65;39.58;70.97;;
58197;Laerm;43999;51.660;5.616;2023-02-13T04:03:22;51.04;40.33;63.69;;
58197;Laerm;43999;51.660;5.616;2023-02-13T04:06:12;46.17;39.58;60.38;;
58197;Laerm;43999;51.660;5.616;2023-02-13T04:08:40;53.30;40.23;67.16;;
58197;Laerm;43999;51.660;5.616;2023-02-13T04:11:34;44.91;40.13;53.80;;
58197;Laerm;43999;51.660;5.616;2023-02-13T04:14:52;51.46;40.43;65.97;;
58197;Laerm;43999;51.660;5.616;2023-02-13T04:17:54;46.48;40.03;64.57;;
58197;Laerm;43999;51.660;5.616;2023-02-13T04:20:30;53.67;40.23;72.43;;
58197;Laerm;43999;51.660;5.616;2023-02-13T04:23:11;45.18;39.70;62.74;;
58197;Laerm;43999;51.660;5.616;2023-02-13T04:25:43;45.58;40.43;56.32;;
58197;Laerm;43999;51.660;5.616;2023-02-13T04:28:16;47.93;40.43;58.13;;
58197;Laerm;43999;51.660;5.616;2023-02-13T04:30:44;55.58;40.71;72.37;;
58197;Laerm;43999;51.660;5.616;2023-02-13T04:33:19;53.54;40.98;67.82;;
58197;Laerm;43999;51.660;5.616;2023-02-13T04:35:46;47.95;41.14;61.60;;
58197;Laerm;43999;51.660;5.616;2023-02-13T04:38:13;46.71;40.71;59.33;;
58197;Laerm;43999;51.660;5.616;2023-02-13T04:40:43;49.72;41.61;64.59;;
58197;Laerm;43999;51.660;5.616;2023-02-13T04:43:13;51.93;40.98;66.11;;
58197;Laerm;43999;51.660;5.616;2023-02-13T04:45:53;54.46;41.96;68.73;;
58197;Laerm;43999;51.660;5.616;2023-02-13T04:48:25;52.96;40.89;65.44;;
58197;Laerm;43999;51.660;5.616;2023-02-13T04:50:54;53.53;42.16;66.50;;
58197;Laerm;43999;51.660;5.616;2023-02-13T04:53:23;56.97;40.62;72.98;;
58197;Laerm;43999;51.660;5.616;2023-02-13T04:55:51;52.32;41.06;64.89;;
58197;Laerm;43999;51.660;5.616;2023-02-13T04:58:22;58.82;41.82;78.63;;
58197;Laerm;43999;51.660;5.616;2023-02-13T05:00:50;50.85;42.53;72.09;;
58197;Laerm;43999;51.660;5.616;2023-02-13T05:03:20;54.15;42.16;67.68;;
58197;Laerm;43999;51.660;5.616;2023-02-13T05:05:48;56.96;41.61;73.67;;
58197;Laerm;43999;51.660;5.616;2023-02-13T05:08:22;57.75;42.22;72.20;;
58197;Laerm;43999;51.660;5.616;2023-02-13T05:11:01;51.34;41.33;65.38;;
58197;Laerm;43999;51.660;5.616;2023-02-13T05:13:29;57.61;41.75;74.61;;
58197;Laerm;43999;51.660;5.616;2023-02-13T05:15:58;55.13;42.09;74.77;;
58197;Laerm;43999;51.660;5.616;2023-02-13T05:18:27;49.48;41.30;62.47;;
58197;Laerm;43999;51.660;5.616;2023-02-13T05:20:58;58.06;42.88;70.90;;
58197;Laerm;43999;51.660;5.616;2023-02-13T05:23:44;60.71;44.23;73.22;;
58197;Laerm;43999;51.660;5.616;2023-02-13T05:26:12;62.81;44.87;77.09;;
58197;Laerm;43999;51.660;5.616;2023-02-13T05:28:41;61.06;43.94;76.53;;
58197;Laerm;43999;51.660;5.616;2023-02-13T05:31:39;58.23;42.41;72.55;;
58197;Laerm;43999;51.660;5.616;2023-02-13T05:34:08;58.12;45.01;71.52;;
58197;Laerm;43999;51.660;5.616;2023-02-13T05:36:37;58.06;43.14;72.43;;
58197;Laerm;43999;51.660;5.616;2023-02-13T05:39:05;61.34;42.59;77.48;;
58197;Laerm;43999;51.660;5.616;2023-02-13T05:41:34;57.16;43.94;69.99;;
58197;Laerm;43999;51.660;5.616;2023-02-13T05:44:01;58.49;44.27;68.17;;
58197;Laerm;43999;51.660;5.616;2023-02-13T05:46:31;58.85;45.30;77.20;;
58197;Laerm;43999;51.660;5.616;2023-02-13T05:48:59;59.71;48.49;69.19;;
58197;Laerm;43999;51.660;5.616;2023-02-13T05:51:37;57.16;45.04;76.85;;
58197;Laerm;43999;51.660;5.616;2023-02-13T05:54:06;63.35;46.40;77.86;;
58197;Laerm;43999;51.660;5.616;2023-02-13T05:56:34;59.81;45.01;70.90;;
58197;Laerm;43999;51.660;5.616;2023-02-13T05:59:04;58.50;46.95;72.65;;
58197;Laerm;43999;51.660;5.616;2023-02-13T06:01:32;61.02;47.68;74.86;;
58197;Laerm;43999;51.660;5.616;2023-02-13T06:04:08;62.66;47.90;77.77;;
58197;Laerm;43999;51.660;5.616;2023-02-13T06:06:35;61.91;47.34;76.46;;
58197;Laerm;43999;51.660;5.616;2023-02-13T06:09:05;66.03;47.96;81.79;;
58197;Laerm;43999;51.660;5.616;2023-02-13T06:11:34;60.77;47.04;73.64;;
58197;Laerm;43999;51.660;5.616;2023-02-13T06:14:11;58.11;44.03;74.78;;
58197;Laerm;43999;51.660;5.616;2023-02-13T06:16:53;60.82;48.40;77.33;;
58197;Laerm;43999;51.660;5.616;2023-02-13T06:19:22;59.83;48.63;71.10;;
58197;Laerm;43999;51.660;5.616;2023-02-13T06:21:53;60.53;50.10;74.49;;
58197;Laerm;43999;51.660;5.616;2023-02-13T06:24:42;62.63;47.67;78.54;;
58197;Laerm;43999;51.660;5.616;2023-02-13T06:27:10;59.95;46.33;71.39;;
58197;Laerm;43999;51.660;5.616;2023-02-13T06:29:37;60.81;47.52;70.97;;
58197;Laerm;43999;51.660;5.616;2023-02-13T06:32:06;60.97;47.98;72.98;;
58197;Laerm;43999;51.660;5.616;2023-02-13T06:34:36;63.29;50.82;75.48;;
58197;Laerm;43999;51.660;5.616;2023-02-13T06:37:07;60.99;48.84;72.48;;
58197;Laerm;43999;51.660;5.616;2023-02-13T06:40:01;61.22;48.70;79.72;;
58197;Laerm;43999;51.660;5.616;2023-02-13T06:42:30;62.93;46.78;85.55;;
58197;Laerm;43999;51.660;5.616;2023-02-13T06:45:01;65.07;51.70;79.25;;
58197;Laerm;43999;51.660;5.616;2023-02-13T06:47:30;63.93;48.94;80.64;;
58197;Laerm;43999;51.660;5.616;2023-02-13T06:50:16;63.13;51.03;70.84;;
58197;Laerm;43999;51.660;5.616;2023-02-13T06:52:49;62.98;51.73;76.67;;
58197;Laerm;43999;51.660;5.616;2023-02-13T06:55:22;60.67;50.46;75.39;;
58197;Laerm;43999;51.660;5.616;2023-02-13T06:57:58;65.47;50.20;86.04;;
58197;Laerm;43999;51.660;5.616;2023-02-13T07:00:29;62.65;51.70;73.39;;
58197;Laerm;43999;51.660;5.616;2023-02-13T07:03:05;61.82;50.16;73.55;;
58197;Laerm;43999;51.660;5.616;2023-02-13T07:05:41;61.81;50.35;80.12;;
58197;Laerm;43999;51.660;5.616;2023-02-13T07:08:11;60.87;48.77;70.29;;
58197;Laerm;43999;51.660;5.616;2023-02-13T07:10:42;62.57;50.64;72.19;;
58197;Laerm;43999;51.660;5.616;2023-02-13T07:13:14;60.47;50.65;70.46;;
58197;Laerm;43999;51.660;5.616;2023-02-13T07:15:43;64.04;51.21;79.38;;
58197;Laerm;43999;51.660;5.616;2023-02-13T07:18:29;62.74;50.66;76.82;;
58197;Laerm;43999;51.660;5.616;2023-02-13T07:20:58;62.41;53.12;76.34;;
58197;Laerm;43999;51.660;5.616;2023-02-13T07:23:28;63.96;53.60;74.22;;
58197;Laerm;43999;51.660;5.616;2023-02-13T07:26:02;63.96;52.39;75.94;;
58197;Laerm;43999;51.660;5.616;2023-02-13T07:28:42;66.09;54.17;77.66;;
58197;Laerm;43999;51.660;5.616;2023-02-13T07:31:13;62.81;52.31;74.80;;
58197;Laerm;43999;51.660;5.616;2023-02-13T07:33:43;63.51;52.26;73.99;;
58197;Laerm;43999;51.660;5.616;2023-02-13T07:36:23;63.50;53.94;75.86;;
58197;Laerm;43999;51.660;5.616;2023-02-13T07:38:56;63.48;51.17;70.36;;
58197;Laerm;43999;51.660;5.616;2023-02-13T07:41:47;64.60;55.21;75.30;;
58197;Laerm;43999;51.660;5.616;2023-02-13T07:44:19;62.84;52.70;72.02;;
58197;Laerm;43999;51.660;5.616;2023-02-13T07:46:46;62.77;52.01;72.76;;
58197;Laerm;43999;51.660;5.616;2023-02-13T07:49:17;62.46;51.30;70.56;;
58197;Laerm;43999;51.660;5.616;2023-02-13T07:51:46;62.40;51.55;72.26;;
58197;Laerm;43999;51.660;5.616;2023-02-13T07:54:17;67.18;55.87;96.22;;
58197;Laerm;43999;51.660;5.616;2023-02-13T07:56:53;64.57;52.42;74.25;;
58197;Laerm;43999;51.660;5.616;2023-02-13T07:59:29;62.64;53.61;78.46;;
58197;Laerm;43999;51.660;5.616;2023-02-13T08:02:01;63.28;51.36;74.44;;
58197;Laerm;43999;51.660;5.616;2023-02-13T08:04:32;61.50;50.41;72.92;;
58197;Laerm;43999;51.660;5.616;2023-02-13T08:07:03;65.17;51.84;78.45;;
58197;Laerm;43999;51.660;5.616;2023-02-13T08:09:35;63.17;48.45;75.77;;
58197;Laerm;43999;51.660;5.616;2023-02-13T08:12:23;62.79;47.42;80.59;;
58197;Laerm;43999;51.660;5.616;2023-02-13T08:15:00;61.64;48.51;75.60;;
58197;Laerm;43999;51.660;5.616;2023-02-13T08:17:37;63.87;49.33;78.85;;
58197;Laerm;43999;51.660;5.616;2023-02-13T08:20:08;64.09;54.35;78.26;;
58197;Laerm;43999;51.660;5.616;2023-02-13T08:25:44;60.86;48.74;68.88;;
58197;Laerm;43999;51.660;5.616;2023-02-13T08:28:29;60.89;48.92;70.86;;
58197;Laerm;43999;51.660;5.616;2023-02-13T08:31:00;64.93;52.40;78.62;;
58197;Laerm;43999;51.660;5.616;2023-02-13T08:33:33;63.25;50.56;79.25;;
58197;Laerm;43999;51.660;5.616;2023-02-13T08:36:10;66.05;51.19;79.32;;
58197;Laerm;43999;51.660;5.616;2023-02-13T08:38:48;62.92;51.43;75.77;;
58197;Laerm;43999;51.660;5.616;2023-02-13T08:41:19;62.90;49.92;76.42;;
58197;Laerm;43999;51.660;5.616;2023-02-13T08:43:54;61.09;47.72;71.54;;
58197;Laerm;43999;51.660;5.616;2023-02-13T08:46:39;67.86;46.02;90.70;;
58197;Laerm;43999;51.660;5.616;2023-02-13T08:49:09;63.63;48.32;81.04;;
58197;Laerm;43999;51.660;5.616;2023-02-13T08:51:53;60.80;50.06;68.78;;
58197;Laerm;43999;51.660;5.616;2023-02-13T08:54:44;61.78;49.84;86.62;;
58197;Laerm;43999;51.660;5.616;2023-02-13T08:57:15;61.91;50.95;72.98;;
58197;Laerm;43999;51.660;5.616;2023-02-13T08:59:43;62.82;49.59;76.08;;
58197;Laerm;43999;51.660;5.616;2023-02-13T09:02:11;63.34;50.89;79.53;;
58197;Laerm;43999;51.660;5.616;2023-02-13T09:05:26;64.52;51.32;78.85;;
58197;Laerm;43999;51.660;5.616;2023-02-13T09:08:04;62.28;48.95;79.03;;
58197;Laerm;43999;51.660;5.616;2023-02-13T09:11:18;60.91;49.19;72.52;;
58197;Laerm;43999;51.660;5.616;2023-02-13T09:13:46;66.52;52.43;79.92;;
58197;Laerm;43999;51.660;5.616;2023-02-13T09:16:36;63.12;50.80;74.19;;
58197;Laerm;43999;51.660;5.616;2023-02-13T09:19:08;63.06;47.28;76.12;;
58197;Laerm;43999;51.660;5.616;2023-02-13T09:21:49;61.26;51.08;73.64;;
58197;Laerm;43999;51.660;5.616;2023-02-13T09:24:27;63.54;53.36;76.22;;
58197;Laerm;43999;51.660;5.616;2023-02-13T09:26:55;62.41;51.75;70.17;;
58197;Laerm;43999;51.660;5.616;2023-02-13T09:29:24;65.64;52.86;82.30;;
58197;Laerm;43999;51.660;5.616;2023-02-13T09:32:04;62.91;52.21;76.38;;
58197;Laerm;43999;51.660;5.616;2023-02-13T09:34:50;65.54;50.31;81.53;;
58197;Laerm;43999;51.660;5.616;2023-02-13T09:37:19;61.42;48.96;70.90;;
58197;Laerm;43999;51.660;5.616;2023-02-13T09:39:49;61.76;49.25;73.07;;
58197;Laerm;43999;51.660;5.616;2023-02-13T09:42:33;63.60;52.67;78.28;;
58197;Laerm;43999;51.660;5.616;2023-02-13T09:45:13;62.50;50.98;75.48;;
58197;Laerm;43999;51.660;5.616;2023-02-13T09:47:45;64.02;51.38;76.33;;
58197;Laerm;43999;51.660;5.616;2023-02-13T09:50:30;65.35;52.03;76.99;;
58197;Laerm;43999;51.660;5.616;2023-02-13T09:53:29;65.61;54.26;85.33;;
58197;Laerm;43999;51.660;5.616;2023-02-13T10:05:43;64.62;47.81;78.99;;
58197;Laerm;43999;51.660;5.616;2023-02-13T10:08:58;62.55;49.95;78.01;;
58197;Laerm;43999;51.660;5.616;2023-02-13T10:12:00;63.89;50.95;73.28;;
58197;Laerm;43999;51.660;5.616;2023-02-13T10:18:11;62.23;48.36;72.76;;
58197;Laerm;43999;51.660;5.616;2023-02-13T10:20:58;62.74;51.17;75.52;;
58197;Laerm;43999;51.660;5.616;2023-02-13T10:24:13;64.13;53.31;77.24;;
58197;Laerm;43999;51.660;5.616;2023-02-13T10:26:51;62.87;51.72;77.57;;
58197;Laerm;43999;51.660;5.616;2023-02-13T10:33:17;63.72;50.92;78.47;;
58197;Laerm;43999;51.660;5.616;2023-02-13T10:39:27;62.77;47.91;73.72;;
58197;Laerm;43999;51.660;5.616;2023-02-13T10:46:02;64.20;51.81;74.23;;
58197;Laerm;43999;51.660;5.616;2023-02-13T10:52:48;62.62;49.79;70.38;;
58197;Laerm;43999;51.660;5.616;2023-02-13T11:02:00;63.45;51.68;72.82;;
58197;Laerm;43999;51.660;5.616;2023-02-13T11:04:31;63.52;46.25;81.73;;
58197;Laerm;43999;51.660;5.616;2023-02-13T11:07:22;61.36;49.35;71.02;;
58197;Laerm;43999;51.660;5.616;2023-02-13T11:10:25;63.26;49.41;82.19;;
58197;Laerm;43999;51.660;5.616;2023-02-13T11:13:23;63.11;52.14;74.15;;
58197;Laerm;43999;51.660;5.616;2023-02-13T11:16:20;64.42;50.94;79.56;;
58197;Laerm;43999;51.660;5.616;2023-02-13T11:18:51;64.66;51.89;79.98;;
58197;Laerm;43999;51.660;5.616;2023-02-13T11:21:35;64.35;50.78;82.17;;
58197;Laerm;43999;51.660;5.616;2023-02-13T11:24:26;61.78;49.23;84.36;;
58197;Laerm;43999;51.660;5.616;2023-02-13T11:27:10;65.25;51.53;78.16;;
58197;Laerm;43999;51.660;5.616;2023-02-13T11:36:31;63.12;50.74;73.92;;
58197;Laerm;43999;51.660;5.616;2023-02-13T11:39:25;63.36;50.05;78.19;;
58197;Laerm;43999;51.660;5.616;2023-02-13T11:41:56;65.27;50.77;88.85;;
58197;Laerm;43999;51.660;5.616;2023-02-13T11:47:56;63.81;48.00;77.59;;
58197;Laerm;43999;51.660;5.616;2023-02-13T11:50:33;63.31;50.62;88.39;;
58197;Laerm;43999;51.660;5.616;2023-02-13T11:53:20;64.77;55.62;93.01;;
58197;Laerm;43999;51.660;5.616;2023-02-13T11:56:14;65.65;52.33;76.21;;
58197;Laerm;43999;51.660;5.616;2023-02-13T11:59:01;63.68;53.95;77.74;;
58197;Laerm;43999;51.660;5.616;2023-02-13T12:01:31;64.82;51.30;78.29;;
58197;Laerm;43999;51.660;5.616;2023-02-13T12:04:30;63.41;50.92;76.49;;
58197;Laerm;43999;51.660;5.616;2023-02-13T12:07:22;63.53;48.87;80.26;;
58197;Laerm;43999;51.660;5.616;2023-02-13T12:10:27;63.39;53.00;75.14;;
58197;Laerm;43999;51.660;5.616;2023-02-13T12:13:25;63.85;54.09;71.50;;
58197;Laerm;43999;51.660;5.616;2023-02-13T12:16:49;61.86;52.91;73.58;;
58197;Laerm;43999;51.660;5.616;2023-02-13T12:19:47;68.10;49.10;88.46;;
58197;Laerm;43999;51.660;5.616;2023-02-13T12:23:08;62.28;50.93;74.95;;
58197;Laerm;43999;51.660;5.616;2023-02-13T12:26:30;65.79;50.06;85.67;;
58197;Laerm;43999;51.660;5.616;2023-02-13T12:30:03;64.01;53.81;78.41;;
58197;Laerm;43999;51.660;5.616;2023-02-13T12:40:15;64.05;51.88;79.96;;
58197;Laerm;43999;51.660;5.616;2023-02-13T12:50:29;63.24;53.26;74.74;;
58197;Laerm;43999;51.660;5.616;2023-02-13T12:56:10;66.21;50.15;82.34;;
58197;Laerm;43999;51.660;5.616;2023-02-13T13:12:29;63.79;52.11;77.46;;
58197;Laerm;43999;51.660;5.616;2023-02-13T13:15:31;64.77;52.88;83.77;;
58197;Laerm;43999;51.660;5.616;2023-02-13T13:22:52;69.65;53.39;93.61;;
58197;Laerm;43999;51.660;5.616;2023-02-13T13:26:20;66.74;51.98;80.68;;
58197;Laerm;43999;51.660;5.616;2023-02-13T13:28:58;63.97;55.09;76.76;;
58197;Laerm;43999;51.660;5.616;2023-02-13T13:31:29;62.17;50.54;73.67;;
58197;Laerm;43999;51.660;5.616;2023-02-13T13:34:15;62.11;50.90;73.84;;
58197;Laerm;43999;51.660;5.616;2023-02-13T13:40:37;63.47;53.31;76.86;;
58197;Laerm;43999;51.660;5.616;2023-02-13T13:48:04;63.59;49.14;77.58;;
58197;Laerm;43999;51.660;5.616;2023-02-13T13:50:40;65.99;52.17;79.89;;
58197;Laerm;43999;51.660;5.616;2023-02-13T13:53:19;63.56;50.58;75.50;;
58197;Laerm;43999;51.660;5.616;2023-02-13T13:56:17;65.95;53.76;78.96;;
58197;Laerm;43999;51.660;5.616;2023-02-13T13:58:58;64.62;52.44;76.47;;
58197;Laerm;43999;51.660;5.616;2023-02-13T14:01:30;67.96;53.43;85.14;;
58197;Laerm;43999;51.660;5.616;2023-02-13T14:09:48;63.99;55.23;75.64;;
58197;Laerm;43999;51.660;5.616;2023-02-13T14:15:00;66.67;52.52;79.60;;
58197;Laerm;43999;51.660;5.616;2023-02-13T14:31:32;64.37;53.89;75.78;;
58197;Laerm;43999;51.660;5.616;2023-02-13T14:34:20;63.41;54.30;73.68;;
58197;Laerm;43999;51.660;5.616;2023-02-13T14:43:31;64.20;56.78;79.72;;
58197;Laerm;43999;51.660;5.616;2023-02-13T14:46:36;64.66;56.11;84.91;;
58197;Laerm;43999;51.660;5.616;2023-02-13T14:49:35;63.69;53.36;77.68;;
58197;Laerm;43999;51.660;5.616;2023-02-13T14:52:33;62.70;51.64;71.06;;
58197;Laerm;43999;51.660;5.616;2023-02-13T14:55:35;64.74;54.33;81.77;;
58197;Laerm;43999;51.660;5.616;2023-02-13T14:58:26;64.66;53.08;82.95;;
58197;Laerm;43999;51.660;5.616;2023-02-13T15:04:43;65.10;53.36;80.83;;
58197;Laerm;43999;51.660;5.616;2023-02-13T15:07:25;66.62;52.59;77.80;;
58197;Laerm;43999;51.660;5.616;2023-02-13T15:13:23;63.84;52.57;71.53;;
58197;Laerm;43999;51.660;5.616;2023-02-13T15:16:13;63.56;52.68;74.87;;
58197;Laerm;43999;51.660;5.616;2023-02-13T15:18:52;65.70;53.95;74.83;;
58197;Laerm;43999;51.660;5.616;2023-02-13T15:21:25;63.94;53.73;72.53;;
58197;Laerm;43999;51.660;5.616;2023-02-13T15:24:05;65.10;53.26;75.14;;
58197;Laerm;43999;51.660;5.616;2023-02-13T15:26:42;66.95;56.49;80.29;;
58197;Laerm;43999;51.660;5.616;2023-02-13T15:29:18;66.36;54.34;80.64;;
58197;Laerm;43999;51.660;5.616;2023-02-13T15:31:58;66.16;57.56;80.90;;
58197;Laerm;43999;51.660;5.616;2023-02-13T15:34:34;63.24;55.61;73.27;;
58197;Laerm;43999;51.660;5.616;2023-02-13T15:37:05;65.25;55.49;87.31;;
58197;Laerm;43999;51.660;5.616;2023-02-13T15:39:33;67.11;56.39;81.61;;
58197;Laerm;43999;51.660;5.616;2023-02-13T15:42:03;64.27;53.51;74.44;;
58197;Laerm;43999;51.660;5.616;2023-02-13T15:44:46;66.02;53.19;83.97;;
58197;Laerm;43999;51.660;5.616;2023-02-13T15:47:31;65.02;56.56;82.41;;
58197;Laerm;43999;51.660;5.616;2023-02-13T15:50:14;65.17;51.30;75.12;;
58197;Laerm;43999;51.660;5.616;2023-02-13T15:52:45;65.24;54.55;89.43;;
58197;Laerm;43999;51.660;5.616;2023-02-13T15:55:29;67.57;54.31;80.36;;
58197;Laerm;43999;51.660;5.616;2023-02-13T15:58:03;63.61;52.45;76.49;;
58197;Laerm;43999;51.660;5.616;2023-02-13T16:00:39;64.53;53.55;75.85;;
58197;Laerm;43999;51.660;5.616;2023-02-13T16:03:16;62.63;52.21;75.21;;
58197;Laerm;43999;51.660;5.616;2023-02-13T16:06:03;67.73;52.53;87.32;;
58197;Laerm;43999;51.660;5.616;2023-02-13T16:08:38;64.57;53.61;71.10;;
58197;Laerm;43999;51.660;5.616;2023-02-13T16:11:40;63.66;55.21;75.17;;
58197;Laerm;43999;51.660;5.616;2023-02-13T16:15:05;63.64;56.89;73.91;;
58197;Laerm;43999;51.660;5.616;2023-02-13T16:17:37;64.75;57.44;84.63;;
58197;Laerm;43999;51.660;5.616;2023-02-13T16:22:48;64.24;52.81;74.66;;
58197;Laerm;43999;51.660;5.616;2023-02-13T16:25:37;65.31;52.29;93.05;;
58197;Laerm;43999;51.660;5.616;2023-02-13T16:28:37;64.56;52.16;75.43;;
58197;Laerm;43999;51.660;5.616;2023-02-13T16:31:11;65.79;54.47;79.50;;
58197;Laerm;43999;51.660;5.616;2023-02-13T16:33:44;64.79;52.07;74.84;;
58197;Laerm;43999;51.660;5.616;2023-02-13T16:36:33;63.96;54.18;73.13;;
58197;Laerm;43999;51.660;5.616;2023-02-13T16:39:18;64.92;55.93;80.57;;
58197;Laerm;43999;51.660;5.616;2023-02-13T16:41:49;63.59;53.79;74.00;;
58197;Laerm;43999;51.660;5.616;2023-02-13T16:44:31;64.84;52.05;78.59;;
58197;Laerm;43999;51.660;5.616;2023-02-13T16:47:19;64.17;54.64;73.99;;
58197;Laerm;43999;51.660;5.616;2023-02-13T16:49:56;64.13;54.32;78.78;;
58197;Laerm;43999;51.660;5.616;2023-02-13T16:52:25;64.10;52.31;73.46;;
58197;Laerm;43999;51.660;5.616;2023-02-13T16:55:00;63.34;51.73;76.90;;
58197;Laerm;43999;51.660;5.616;2023-02-13T16:57:35;63.41;51.03;73.61;;
58197;Laerm;43999;51.660;5.616;2023-02-13T17:00:23;62.22;51.40;71.26;;
58197;Laerm;43999;51.660;5.616;2023-02-13T17:02:53;64.03;50.61;81.14;;
58197;Laerm;43999;51.660;5.616;2023-02-13T17:05:28;65.19;52.77;79.54;;
58197;Laerm;43999;51.660;5.616;2023-02-13T17:08:02;65.15;49.41;80.14;;
58197;Laerm;43999;51.660;5.616;2023-02-13T17:10:35;63.11;53.02;71.35;;
58197;Laerm;43999;51.660;5.616;2023-02-13T17:15:45;63.81;51.78;78.33;;
58197;Laerm;43999;51.660;5.616;2023-02-13T17:18:22;63.26;52.04;73.41;;
58197;Laerm;43999;51.660;5.616;2023-02-13T17:20:51;62.89;52.54;80.62;;
58197;Laerm;43999;51.660;5.616;2023-02-13T17:23:24;63.27;49.78;74.02;;
58197;Laerm;43999;51.660;5.616;2023-02-13T17:25:53;63.67;50.31;73.34;;
58197;Laerm;43999;51.660;5.616;2023-02-13T17:28:26;62.21;49.04;71.47;;
58197;Laerm;43999;51.660;5.616;2023-02-13T17:30:59;64.04;51.62;83.39;;
58197;Laerm;43999;51.660;5.616;2023-02-13T17:33:30;65.14;51.83;80.90;;
58197;Laerm;43999;51.660;5.616;2023-02-13T17:36:01;62.33;51.16;77.16;;
58197;Laerm;43999;51.660;5.616;2023-02-13T17:38:30;60.93;51.46;71.82;;
58197;Laerm;43999;51.660;5.616;2023-02-13T17:41:15;62.27;49.80;82.37;;
58197;Laerm;43999;51.660;5.616;2023-02-13T17:43:45;60.92;49.62;73.17;;
58197;Laerm;43999;51.660;5.616;2023-02-13T17:46:15;63.47;50.79;88.23;;